Time;durP1;ratioP1;P1;durP2;ratioP2;P2;SDS_P1;SDS_P2;PMS_P1;PMS_P2;Temp;Humidity;BMP_temperature;BMP_pressure;BME280_temperature;BME280_humidity;BME280_pressure;Samples;Min_cycle;Max_cycle;Signal;HPM_P1;HPM_P2
2023/09/26 00:00:41;;;;;;;7.90;6.77;;;14.60;99.90;;;;;;5186725;28;20262;-48
2023/09/26 00:03:12;;;;;;;7.57;6.17;;;14.60;99.90;;;;;;5182928;28;20431;-48
2023/09/26 00:05:43;;;;;;;6.50;5.90;;;14.60;99.90;;;;;;5159219;28;20660;-49
2023/09/26 00:08:14;;;;;;;9.63;6.40;;;14.50;99.90;;;;;;5184335;28;20525;-48
2023/09/26 00:10:47;;;;;;;9.20;7.60;;;14.50;99.90;;;;;;5184598;28;20183;-50
2023/09/26 00:13:18;;;;;;;9.50;8.20;;;14.40;99.90;;;;;;5184621;28;20451;-49
2023/09/26 00:15:48;;;;;;;9.40;7.97;;;14.40;99.90;;;;;;5184398;28;20447;-54
2023/09/26 00:18:19;;;;;;;9.40;8.27;;;14.40;99.90;;;;;;5184248;28;20188;-49
2023/09/26 00:20:49;;;;;;;10.43;8.70;;;14.40;99.90;;;;;;5182376;28;20675;-51
2023/09/26 00:23:20;;;;;;;9.80;8.80;;;14.40;99.90;;;;;;5183909;28;20711;-49
2023/09/26 00:25:50;;;;;;;8.83;8.10;;;14.40;99.90;;;;;;5185905;28;20176;-50
2023/09/26 00:28:21;;;;;;;12.33;9.23;;;14.40;99.90;;;;;;5183939;28;20184;-50
2023/09/26 00:30:52;;;;;;;8.93;8.13;;;14.40;99.90;;;;;;5182966;28;20275;-51
2023/09/26 00:33:23;;;;;;;9.17;8.10;;;14.40;99.90;;;;;;5181999;28;20676;-50
2023/09/26 00:35:53;;;;;;;10.77;8.63;;;14.40;99.90;;;;;;5183354;28;20576;-51
2023/09/26 00:38:24;;;;;;;12.33;7.60;;;14.40;99.90;;;;;;5185081;28;20524;-51
2023/09/26 00:40:55;;;;;;;10.03;8.90;;;14.40;99.90;;;;;;5184145;28;20275;-51
2023/09/26 00:43:25;;;;;;;10.43;8.60;;;14.40;99.90;;;;;;5184223;28;20263;-50
2023/09/26 00:45:58;;;;;;;9.67;8.50;;;14.40;99.90;;;;;;5180252;28;20215;-50
2023/09/26 00:48:29;;;;;;;9.47;8.40;;;14.40;99.90;;;;;;5159991;28;20183;-51
2023/09/26 00:51:00;;;;;;;9.50;8.60;;;14.40;99.90;;;;;;5183704;28;20779;-51
2023/09/26 00:53:32;;;;;;;10.50;9.13;;;14.30;99.90;;;;;;5181005;28;20838;-51
2023/09/26 00:56:03;;;;;;;12.40;8.63;;;14.40;99.90;;;;;;5185710;28;20423;-50
2023/09/26 00:58:33;;;;;;;11.07;9.87;;;14.40;99.90;;;;;;5199114;28;20431;-51
2023/09/26 01:01:05;;;;;;;9.73;8.67;;;14.30;99.90;;;;;;5197340;28;20435;-51
2023/09/26 01:03:37;;;;;;;10.60;8.97;;;14.30;99.90;;;;;;5185837;28;20631;-50
2023/09/26 01:06:09;;;;;;;16.00;9.67;;;14.30;99.90;;;;;;5175250;28;20490;-51
2023/09/26 01:08:39;;;;;;;9.77;8.77;;;14.30;99.90;;;;;;5184354;28;20562;-51
2023/09/26 01:11:10;;;;;;;10.87;9.80;;;14.30;99.90;;;;;;5185617;28;20939;-51
2023/09/26 01:13:41;;;;;;;19.47;9.27;;;14.30;99.90;;;;;;5185253;28;20502;-51
2023/09/26 01:16:19;;;;;;;9.80;8.40;;;14.30;99.90;;;;;;5184934;28;20236;-50
2023/09/26 01:18:49;;;;;;;11.10;8.77;;;14.30;99.90;;;;;;5183896;28;20188;-51
2023/09/26 01:21:20;;;;;;;13.50;9.53;;;14.30;99.90;;;;;;5179378;28;20446;-51
2023/09/26 01:23:58;;;;;;;10.03;9.03;;;14.30;99.90;;;;;;5199417;28;20204;-51
2023/09/26 01:26:36;;;;;;;10.67;9.53;;;14.30;99.90;;;;;;5185123;28;21008;-49
2023/09/26 01:29:07;;;;;;;10.40;9.30;;;14.30;99.90;;;;;;5185125;28;20435;-49
2023/09/26 01:31:38;;;;;;;10.57;9.50;;;14.30;99.90;;;;;;5187157;28;20497;-50
2023/09/26 01:34:09;;;;;;;10.20;9.20;;;14.30;99.90;;;;;;5183716;28;20177;-50
2023/09/26 01:36:40;;;;;;;10.80;9.80;;;14.30;99.90;;;;;;5187292;28;20230;-50
2023/09/26 01:39:10;;;;;;;11.53;10.00;;;14.30;99.90;;;;;;5187731;28;20214;-50
2023/09/26 01:41:41;;;;;;;11.73;10.50;;;14.30;99.90;;;;;;5183616;28;20195;-51
2023/09/26 01:44:12;;;;;;;11.57;10.20;;;14.30;99.90;;;;;;5180884;28;20192;-50
2023/09/26 01:46:43;;;;;;;16.30;10.77;;;14.20;99.90;;;;;;5184459;28;20212;-50
2023/09/26 01:49:13;;;;;;;11.33;10.13;;;14.20;99.90;;;;;;5178662;28;20177;-51
2023/09/26 01:51:44;;;;;;;18.20;11.57;;;14.20;99.90;;;;;;5182740;28;20185;-49
2023/09/26 01:54:15;;;;;;;20.90;11.43;;;14.10;99.90;;;;;;5176640;28;20181;-50
2023/09/26 01:56:46;;;;;;;15.40;11.33;;;14.10;99.90;;;;;;5181739;28;20219;-49
2023/09/26 01:59:16;;;;;;;18.70;11.73;;;14.10;99.90;;;;;;5180973;28;20199;-49
2023/09/26 02:01:47;;;;;;;13.67;12.20;;;14.10;99.90;;;;;;5182214;28;20188;-49
2023/09/26 02:04:18;;;;;;;14.67;12.73;;;14.10;99.90;;;;;;5184908;28;20250;-49
2023/09/26 02:06:49;;;;;;;13.70;12.40;;;14.00;99.90;;;;;;5182240;28;20238;-49
2023/09/26 02:09:20;;;;;;;17.97;12.43;;;14.00;99.90;;;;;;5165845;28;20212;-48
2023/09/26 02:11:50;;;;;;;13.70;11.00;;;14.00;99.90;;;;;;5185773;28;20196;-50
2023/09/26 02:14:21;;;;;;;14.77;12.50;;;14.00;99.90;;;;;;5187508;28;20247;-51
2023/09/26 02:16:52;;;;;;;15.37;12.00;;;13.90;99.90;;;;;;5177241;28;20208;-50
2023/09/26 02:19:22;;;;;;;15.70;11.87;;;14.00;99.90;;;;;;5186686;28;20202;-48
2023/09/26 02:21:53;;;;;;;20.33;13.17;;;13.90;99.90;;;;;;5183827;28;20686;-49
2023/09/26 02:24:24;;;;;;;15.73;12.30;;;13.90;99.90;;;;;;5207124;28;20551;-49
2023/09/26 02:26:58;;;;;;;16.23;13.93;;;13.90;99.90;;;;;;5190059;28;20223;-48
2023/09/26 02:29:29;;;;;;;15.30;12.97;;;13.90;99.90;;;;;;5192824;28;20519;-50
2023/09/26 02:31:59;;;;;;;19.80;12.70;;;13.80;99.90;;;;;;5192281;28;20500;-49
2023/09/26 02:34:31;;;;;;;16.23;13.13;;;13.80;99.90;;;;;;5189493;28;20571;-49
2023/09/26 02:37:02;;;;;;;15.90;12.47;;;13.80;99.90;;;;;;5190272;28;20755;-49
2023/09/26 02:39:33;;;;;;;18.20;13.40;;;13.70;99.90;;;;;;5191490;28;20443;-50
2023/09/26 02:42:04;;;;;;;22.13;14.53;;;13.70;99.90;;;;;;5190228;28;20606;-48
2023/09/26 02:44:34;;;;;;;18.43;12.60;;;13.70;99.90;;;;;;5183876;28;20448;-50
2023/09/26 02:47:05;;;;;;;17.60;13.20;;;13.70;99.90;;;;;;5170325;28;20305;-50
2023/09/26 02:49:36;;;;;;;15.97;14.27;;;13.70;99.90;;;;;;5186066;28;20727;-51
2023/09/26 02:52:10;;;;;;;16.63;14.60;;;13.70;99.90;;;;;;5180014;28;20262;-49
2023/09/26 02:54:41;;;;;;;19.30;13.60;;;13.70;99.90;;;;;;5179283;28;20416;-50
2023/09/26 02:57:11;;;;;;;15.53;13.53;;;13.60;99.90;;;;;;5187248;28;20481;-50
2023/09/26 02:59:42;;;;;;;17.57;14.60;;;13.60;99.90;;;;;;5201782;28;20639;-49
2023/09/26 03:02:13;;;;;;;20.50;14.83;;;13.60;99.90;;;;;;5188450;28;20196;-50
2023/09/26 03:04:50;;;;;;;17.13;14.50;;;13.60;99.90;;;;;;5189344;28;20558;-50
2023/09/26 03:07:21;;;;;;;22.77;15.10;;;13.60;99.90;;;;;;5184668;28;20254;-50
2023/09/26 03:09:52;;;;;;;21.43;15.33;;;13.60;99.90;;;;;;5180986;28;20424;-49
2023/09/26 03:12:23;;;;;;;19.87;15.80;;;13.50;99.90;;;;;;5187461;28;20177;-50
2023/09/26 03:14:55;;;;;;;19.63;15.53;;;13.50;99.90;;;;;;5185578;28;20432;-50
2023/09/26 03:17:26;;;;;;;22.77;16.43;;;13.50;99.90;;;;;;5191188;28;20215;-48
2023/09/26 03:19:57;;;;;;;21.63;15.80;;;13.60;99.90;;;;;;5188253;28;20522;-49
2023/09/26 03:22:28;;;;;;;22.90;16.37;;;13.60;99.90;;;;;;5189180;28;20275;-50
2023/09/26 03:24:59;;;;;;;19.77;16.13;;;13.50;99.90;;;;;;5179926;28;20515;-50
2023/09/26 03:27:29;;;;;;;21.00;17.10;;;13.50;99.90;;;;;;5185093;28;20212;-50
2023/09/26 03:30:00;;;;;;;22.50;17.13;;;13.50;99.90;;;;;;5185969;28;20747;-50
2023/09/26 03:32:31;;;;;;;23.20;17.30;;;13.50;99.90;;;;;;5187801;28;20242;-50
2023/09/26 03:35:02;;;;;;;22.20;17.23;;;13.50;99.90;;;;;;5193809;28;20185;-50
2023/09/26 03:37:33;;;;;;;26.00;18.87;;;13.50;99.90;;;;;;5181050;28;20200;-51
2023/09/26 03:40:04;;;;;;;31.47;17.70;;;13.50;99.90;;;;;;5187455;28;20185;-50
2023/09/26 03:42:34;;;;;;;21.53;17.17;;;13.50;99.90;;;;;;5182296;28;20184;-51
2023/09/26 03:45:06;;;;;;;25.30;17.70;;;13.50;99.90;;;;;;5187458;28;20435;-50
2023/09/26 03:47:38;;;;;;;19.30;16.97;;;13.50;99.90;;;;;;5185485;28;20295;-49
2023/09/26 03:50:09;;;;;;;27.13;17.60;;;13.50;99.90;;;;;;5188262;28;20471;-49
2023/09/26 03:52:40;;;;;;;21.80;17.53;;;13.50;99.90;;;;;;5183456;28;20499;-49
2023/09/26 03:55:11;;;;;;;22.30;16.63;;;13.50;99.90;;;;;;5181297;28;20274;-50
2023/09/26 03:57:42;;;;;;;21.67;17.50;;;13.40;99.90;;;;;;5185358;28;20228;-50
2023/09/26 04:00:15;;;;;;;21.40;17.30;;;13.40;99.90;;;;;;5186396;28;20323;-50
2023/09/26 04:02:47;;;;;;;23.80;18.67;;;13.40;99.90;;;;;;5177791;28;20680;-51
2023/09/26 04:05:17;;;;;;;24.87;18.30;;;13.40;99.90;;;;;;5201789;28;20435;-49
2023/09/26 04:07:48;;;;;;;23.70;18.30;;;13.40;99.90;;;;;;5181678;28;20467;-49
2023/09/26 04:10:19;;;;;;;20.90;17.63;;;13.40;99.90;;;;;;5178427;28;20184;-50
2023/09/26 04:12:50;;;;;;;21.93;18.30;;;13.30;99.90;;;;;;5187810;28;20923;-51
2023/09/26 04:15:21;;;;;;;31.03;19.77;;;13.30;99.90;;;;;;5189761;28;20211;-49
2023/09/26 04:17:51;;;;;;;27.30;19.50;;;13.30;99.90;;;;;;5188448;28;20692;-50
2023/09/26 04:20:23;;;;;;;24.60;19.83;;;13.30;99.90;;;;;;5180434;28;20188;-51
2023/09/26 04:22:53;;;;;;;27.57;18.97;;;13.20;99.90;;;;;;5193391;28;20215;-50
2023/09/26 04:25:24;;;;;;;40.63;21.83;;;13.20;99.90;;;;;;5187966;28;20482;-49
2023/09/26 04:27:55;;;;;;;31.40;21.43;;;13.20;99.90;;;;;;5189505;28;20248;-52
2023/09/26 04:30:26;;;;;;;32.40;21.70;;;13.20;99.90;;;;;;5174272;28;20181;-50
2023/09/26 04:32:57;;;;;;;28.30;20.67;;;13.20;99.90;;;;;;5184634;28;20203;-49
2023/09/26 04:35:27;;;;;;;24.17;20.30;;;13.20;99.90;;;;;;5188273;28;20180;-51
2023/09/26 04:37:58;;;;;;;28.53;21.60;;;13.20;99.90;;;;;;5174310;28;20593;-49
2023/09/26 04:40:29;;;;;;;37.90;21.60;;;13.10;99.90;;;;;;5184026;28;20188;-50
2023/09/26 04:43:02;;;;;;;30.13;22.20;;;13.10;99.90;;;;;;5183746;28;20278;-50
2023/09/26 04:45:33;;;;;;;33.00;22.40;;;13.10;99.90;;;;;;5179064;28;20463;-49
2023/09/26 04:48:04;;;;;;;34.33;23.97;;;13.10;99.90;;;;;;5178212;28;20578;-50
2023/09/26 04:50:35;;;;;;;30.87;23.07;;;13.10;99.90;;;;;;5180932;28;20482;-50
2023/09/26 04:53:05;;;;;;;28.47;22.03;;;13.10;99.90;;;;;;5184463;28;20471;-49
2023/09/26 04:55:36;;;;;;;38.77;24.10;;;13.10;99.90;;;;;;5186273;28;20181;-51
2023/09/26 04:58:08;;;;;;;30.87;22.90;;;13.10;99.90;;;;;;5186405;28;20216;-50
2023/09/26 05:00:38;;;;;;;27.57;22.70;;;13.10;99.90;;;;;;5179894;28;20428;-50
2023/09/26 05:03:09;;;;;;;37.50;25.17;;;13.10;99.90;;;;;;5186114;28;20446;-48
2023/09/26 05:05:42;;;;;;;34.63;24.57;;;13.10;99.90;;;;;;5183329;28;20545;-51
2023/09/26 05:08:13;;;;;;;33.60;24.57;;;13.10;99.90;;;;;;5194477;28;20624;-51
2023/09/26 05:10:43;;;;;;;36.97;25.83;;;13.10;99.90;;;;;;5185654;28;20431;-50
2023/09/26 05:13:15;;;;;;;48.00;24.97;;;13.10;99.90;;;;;;5187434;28;20188;-56
2023/09/26 05:15:45;;;;;;;39.80;25.20;;;13.10;99.90;;;;;;5183640;28;20191;-50
2023/09/26 05:18:16;;;;;;;33.43;23.93;;;13.10;99.90;;;;;;5192198;28;20452;-50
2023/09/26 05:20:47;;;;;;;35.00;23.90;;;13.20;99.90;;;;;;5182998;28;20188;-51
2023/09/26 05:23:18;;;;;;;37.73;26.03;;;13.20;99.90;;;;;;5185947;28;20234;-51
2023/09/26 05:25:51;;;;;;;35.97;24.97;;;13.20;99.90;;;;;;5186674;28;20191;-52
2023/09/26 05:28:22;;;;;;;40.80;24.10;;;13.20;99.90;;;;;;5185784;28;22681;-50
2023/09/26 05:30:53;;;;;;;32.87;24.47;;;13.20;99.90;;;;;;5177055;28;20416;-50
2023/09/26 05:33:23;;;;;;;31.07;23.67;;;13.20;99.90;;;;;;5184489;28;20293;-49
2023/09/26 05:35:55;;;;;;;36.43;22.17;;;13.20;99.90;;;;;;5185114;28;20184;-50
2023/09/26 05:38:26;;;;;;;38.23;25.13;;;13.30;99.90;;;;;;5188019;28;20180;-49
2023/09/26 05:40:56;;;;;;;41.03;23.80;;;13.30;99.90;;;;;;5183606;28;20450;-51
2023/09/26 05:43:29;;;;;;;31.53;22.27;;;13.40;99.90;;;;;;5182989;28;20195;-49
2023/09/26 05:46:02;;;;;;;29.83;21.63;;;13.50;99.90;;;;;;5184861;28;20251;-50
2023/09/26 05:48:32;;;;;;;32.43;23.07;;;13.50;99.90;;;;;;5185631;28;20451;-50
2023/09/26 05:51:03;;;;;;;38.50;21.33;;;13.60;99.90;;;;;;5187313;28;20435;-49
2023/09/26 05:53:34;;;;;;;32.87;22.60;;;13.70;99.90;;;;;;5187387;28;20259;-49
2023/09/26 05:56:05;;;;;;;29.47;21.13;;;13.70;99.90;;;;;;5180520;28;20188;-50
2023/09/26 05:58:35;;;;;;;30.47;21.97;;;13.80;99.90;;;;;;5189462;28;20218;-50
2023/09/26 06:01:08;;;;;;;30.50;22.10;;;13.90;99.90;;;;;;5163773;28;20181;-51
2023/09/26 06:03:39;;;;;;;28.73;20.30;;;14.10;99.90;;;;;;5191536;28;20208;-51
2023/09/26 06:06:10;;;;;;;28.57;18.90;;;14.60;99.90;;;;;;5188033;28;20465;-52
2023/09/26 06:08:41;;;;;;;20.30;16.60;;;15.60;99.90;;;;;;5191511;28;20923;-50
2023/09/26 06:11:12;;;;;;;16.73;14.67;;;16.90;99.90;;;;;;5183672;28;20189;-52
2023/09/26 06:13:44;;;;;;;23.70;13.33;;;18.50;99.90;;;;;;5177300;28;20716;-51
2023/09/26 06:16:16;;;;;;;16.50;12.00;;;20.10;99.90;;;;;;5191336;28;20447;-51
2023/09/26 06:18:47;;;;;;;17.27;12.13;;;21.50;99.90;;;;;;5191153;28;20907;-49
2023/09/26 06:21:19;;;;;;;16.20;11.43;;;22.60;99.90;;;;;;5156154;28;20478;-50
2023/09/26 06:23:51;;;;;;;17.10;12.17;;;23.40;99.90;;;;;;5189901;28;20435;-49
2023/09/26 06:26:22;;;;;;;14.13;11.70;;;24.00;99.90;;;;;;5189176;28;20462;-50
2023/09/26 06:28:53;;;;;;;18.57;11.27;;;24.70;98.90;;;;;;5190262;28;20788;-51
2023/09/26 06:31:24;;;;;;;10.73;9.63;;;25.00;95.90;;;;;;5185368;28;20435;-51
2023/09/26 06:33:59;;;;;;;10.83;9.37;;;25.60;94.50;;;;;;5187277;28;20176;-51
2023/09/26 06:36:31;;;;;;;15.03;10.33;;;26.50;91.10;;;;;;5205001;28;20200;-51
2023/09/26 06:39:02;;;;;;;18.43;9.80;;;27.30;83.20;;;;;;5190254;28;20484;-52
2023/09/26 06:41:33;;;;;;;17.77;10.00;;;27.70;76.80;;;;;;5175680;28;20535;-50
2023/09/26 06:44:04;;;;;;;14.87;9.87;;;28.30;72.80;;;;;;5175907;28;20553;-50
2023/09/26 06:46:35;;;;;;;27.03;10.90;;;28.60;68.20;;;;;;5185129;28;20197;-49
2023/09/26 06:49:06;;;;;;;16.03;10.83;;;28.40;66.70;;;;;;5189071;28;20710;-50
2023/09/26 06:51:37;;;;;;;12.73;8.27;;;28.20;66.30;;;;;;5186169;28;20522;-50
2023/09/26 06:54:08;;;;;;;20.73;10.67;;;28.50;65.80;;;;;;5189346;28;20192;-50
2023/09/26 06:56:38;;;;;;;13.93;9.90;;;29.00;62.40;;;;;;5190145;28;20962;-51
2023/09/26 06:59:09;;;;;;;11.43;9.30;;;28.90;61.00;;;;;;5188669;28;20306;-50
2023/09/26 07:01:40;;;;;;;12.63;10.00;;;29.30;59.90;;;;;;5189045;28;20185;-51
2023/09/26 07:04:14;;;;;;;12.63;9.07;;;29.30;59.00;;;;;;5182140;28;20176;-50
2023/09/26 07:06:45;;;;;;;16.93;11.43;;;28.90;59.00;;;;;;5182818;28;20200;-51
2023/09/26 07:09:16;;;;;;;17.97;11.20;;;28.70;59.30;;;;;;5188519;28;20963;-51
2023/09/26 07:11:47;;;;;;;12.13;8.83;;;28.80;58.70;;;;;;5185048;28;20466;-50
2023/09/26 07:14:18;;;;;;;13.37;10.60;;;28.80;59.30;;;;;;5188731;28;20443;-51
2023/09/26 07:16:50;;;;;;;15.30;11.00;;;29.00;58.50;;;;;;5187602;28;20683;-51
2023/09/26 07:19:21;;;;;;;14.73;10.73;;;29.00;58.10;;;;;;5187273;28;20184;-51
2023/09/26 07:21:52;;;;;;;11.80;10.07;;;28.90;58.20;;;;;;5188307;28;20450;-51
2023/09/26 07:24:22;;;;;;;9.70;8.00;;;29.20;57.80;;;;;;5187863;28;20595;-52
2023/09/26 07:26:53;;;;;;;21.40;11.23;;;30.00;56.60;;;;;;5189986;28;20688;-50
2023/09/26 07:29:24;;;;;;;12.77;10.50;;;30.50;55.10;;;;;;5185625;28;20185;-51
2023/09/26 07:31:55;;;;;;;13.37;9.93;;;30.70;54.20;;;;;;5186490;28;20176;-51
2023/09/26 07:34:25;;;;;;;14.60;11.40;;;31.20;53.90;;;;;;5165488;28;20231;-49
2023/09/26 07:36:56;;;;;;;12.20;10.40;;;31.80;51.50;;;;;;5185202;28;20664;-52
2023/09/26 07:39:27;;;;;;;13.30;10.20;;;31.80;51.20;;;;;;5185236;28;20180;-50
2023/09/26 07:41:58;;;;;;;15.63;10.10;;;31.60;51.20;;;;;;5183421;28;20664;-50
2023/09/26 07:44:29;;;;;;;19.30;11.50;;;31.30;51.40;;;;;;5188328;28;20645;-50
2023/09/26 07:47:00;;;;;;;12.40;9.07;;;31.00;52.80;;;;;;5186301;28;20209;-51
2023/09/26 07:49:30;;;;;;;17.70;12.60;;;30.80;52.50;;;;;;5187273;28;20827;-53
2023/09/26 07:52:01;;;;;;;15.30;11.83;;;29.90;53.90;;;;;;5184224;28;20188;-51
2023/09/26 07:54:32;;;;;;;11.53;9.03;;;28.40;57.40;;;;;;5183522;28;20192;-52
2023/09/26 07:57:03;;;;;;;11.43;9.40;;;27.50;59.30;;;;;;5167319;28;20575;-52
2023/09/26 07:59:34;;;;;;;18.63;10.93;;;26.70;62.00;;;;;;5203354;28;20181;-50
2023/09/26 08:02:05;;;;;;;21.57;12.80;;;25.70;64.10;;;;;;5187465;28;20592;-51
2023/09/26 08:04:36;;;;;;;15.33;10.93;;;24.50;67.20;;;;;;5186846;28;20180;-52
2023/09/26 08:07:06;;;;;;;14.87;11.13;;;23.90;70.00;;;;;;5182898;28;20890;-51
2023/09/26 08:09:38;;;;;;;15.87;11.57;;;23.20;73.10;;;;;;5187909;28;20188;-50
2023/09/26 08:12:09;;;;;;;13.90;11.40;;;22.70;76.30;;;;;;5186388;28;20195;-52
2023/09/26 08:14:39;;;;;;;19.43;11.77;;;22.30;79.50;;;;;;5184400;28;20435;-50
2023/09/26 08:17:10;;;;;;;19.90;12.10;;;22.30;81.60;;;;;;5186539;28;20200;-50
2023/09/26 08:19:42;;;;;;;35.07;15.30;;;22.10;84.90;;;;;;5186463;28;20652;-51
2023/09/26 08:22:12;;;;;;;29.87;15.43;;;21.50;88.90;;;;;;5187372;28;20200;-51
2023/09/26 08:24:43;;;;;;;28.53;15.10;;;20.90;93.50;;;;;;5187195;28;20839;-52
2023/09/26 08:27:14;;;;;;;19.50;14.33;;;20.30;98.90;;;;;;5186334;28;20208;-51
2023/09/26 08:29:45;;;;;;;23.63;16.10;;;20.00;99.90;;;;;;5179081;28;20213;-50
2023/09/26 08:32:16;;;;;;;20.47;15.90;;;19.90;99.90;;;;;;5176242;28;20526;-50
2023/09/26 08:34:47;;;;;;;21.60;14.87;;;19.70;99.90;;;;;;5173555;28;20184;-49
2023/09/26 08:37:17;;;;;;;20.20;15.50;;;19.50;99.90;;;;;;5187767;28;20208;-50
2023/09/26 08:39:48;;;;;;;25.73;16.80;;;19.60;99.90;;;;;;5186446;28;20188;-50
2023/09/26 08:42:27;;;;;;;26.50;15.13;;;19.50;99.90;;;;;;5186855;28;20184;-51
2023/09/26 08:44:58;;;;;;;21.23;15.70;;;19.40;99.90;;;;;;5186769;28;20215;-49
2023/09/26 08:47:29;;;;;;;19.93;15.30;;;19.30;99.90;;;;;;5181979;28;20459;-51
2023/09/26 08:50:00;;;;;;;21.80;15.00;;;19.40;99.90;;;;;;5175387;28;20434;-52
2023/09/26 08:52:33;;;;;;;15.93;12.90;;;19.50;99.90;;;;;;5178425;28;20177;-50
2023/09/26 08:55:04;;;;;;;19.07;14.57;;;19.70;99.90;;;;;;5186456;28;20649;-49
2023/09/26 08:57:36;;;;;;;16.90;13.63;;;19.80;99.90;;;;;;5184485;28;20591;-50
2023/09/26 09:00:09;;;;;;;23.90;15.13;;;19.70;99.90;;;;;;5186127;28;20529;-50
2023/09/26 09:02:40;;;;;;;20.47;13.03;;;19.60;99.90;;;;;;5174180;28;20436;-51
2023/09/26 09:05:10;;;;;;;19.90;13.50;;;19.50;99.90;;;;;;5203853;28;20470;-51
2023/09/26 09:07:41;;;;;;;21.73;13.57;;;19.60;99.90;;;;;;5169560;28;20211;-49
2023/09/26 09:10:13;;;;;;;23.47;13.17;;;19.70;99.90;;;;;;5187043;28;20195;-50
2023/09/26 09:12:50;;;;;;;14.73;12.50;;;19.80;99.90;;;;;;5186944;28;20276;-52
2023/09/26 09:15:22;;;;;;;20.73;13.40;;;20.00;99.90;;;;;;5185137;28;20431;-50
2023/09/26 09:17:53;;;;;;;13.90;12.03;;;19.90;99.90;;;;;;5185623;28;20815;-50
2023/09/26 09:20:35;;;;;;;16.40;12.73;;;19.70;99.90;;;;;;5173019;28;20439;-51
2023/09/26 09:23:07;;;;;;;16.13;11.33;;;19.60;99.90;;;;;;5181294;28;20187;-52
2023/09/26 09:25:40;;;;;;;13.70;12.10;;;19.60;99.90;;;;;;5187131;28;20412;-51
2023/09/26 09:28:10;;;;;;;14.70;11.17;;;19.50;99.90;;;;;;5186530;28;20474;-50
2023/09/26 09:30:44;;;;;;;12.27;10.17;;;19.60;99.90;;;;;;5190256;28;20442;-50
2023/09/26 09:33:16;;;;;;;15.83;10.10;;;19.70;99.90;;;;;;5189497;28;20194;-50
2023/09/26 09:35:47;;;;;;;13.67;9.53;;;20.00;99.90;;;;;;5191158;28;20443;-51
2023/09/26 09:38:18;;;;;;;16.90;12.03;;;20.20;99.90;;;;;;5194048;28;20465;-50
2023/09/26 09:40:49;;;;;;;18.37;12.13;;;20.40;99.90;;;;;;5168058;28;20530;-51
2023/09/26 09:43:20;;;;;;;14.00;10.60;;;20.30;99.90;;;;;;5190686;28;20521;-51
2023/09/26 09:45:53;;;;;;;12.80;9.80;;;20.40;99.90;;;;;;5190852;28;20196;-50
2023/09/26 09:48:26;;;;;;;10.60;9.53;;;20.50;99.90;;;;;;5190246;28;20223;-52
2023/09/26 09:51:03;;;;;;;11.37;8.10;;;20.60;99.90;;;;;;5182745;28;20939;-52
2023/09/26 09:53:35;;;;;;;15.00;9.30;;;20.70;99.90;;;;;;5194302;28;20430;-50
2023/09/26 09:56:07;;;;;;;15.33;10.60;;;20.70;99.90;;;;;;5188945;28;20439;-52
2023/09/26 09:58:44;;;;;;;15.53;9.37;;;20.60;99.90;;;;;;5187571;28;20854;-50
2023/09/26 10:01:18;;;;;;;9.10;7.97;;;20.60;99.90;;;;;;5190250;28;20430;-50
2023/09/26 10:03:50;;;;;;;7.93;7.13;;;20.70;99.90;;;;;;5187952;28;20573;-51
2023/09/26 10:06:21;;;;;;;13.57;9.50;;;20.70;99.90;;;;;;5184946;28;20834;-51
2023/09/26 10:08:54;;;;;;;11.93;8.87;;;20.70;99.90;;;;;;5189258;28;20522;-51
2023/09/26 10:11:26;;;;;;;9.50;8.40;;;20.70;99.90;;;;;;5190186;28;20177;-52
2023/09/26 10:13:58;;;;;;;10.00;8.40;;;20.80;99.90;;;;;;5186529;28;20514;-51
2023/09/26 10:16:30;;;;;;;7.10;6.40;;;20.80;99.90;;;;;;5189501;28;20443;-51
2023/09/26 10:19:00;;;;;;;6.87;6.27;;;20.70;99.90;;;;;;5185034;28;20436;-50
2023/09/26 10:21:31;;;;;;;7.27;6.67;;;20.80;99.90;;;;;;5170350;28;20489;-50
2023/09/26 10:24:05;;;;;;;8.40;7.13;;;20.90;99.90;;;;;;5188111;28;20214;-50
2023/09/26 10:26:50;;;;;;;7.83;7.03;;;20.90;99.90;;;;;;5190474;28;20469;-51
2023/09/26 10:29:27;;;;;;;8.73;6.40;;;20.90;99.90;;;;;;5190079;28;20458;-51
2023/09/26 10:32:07;;;;;;;6.33;5.80;;;21.00;99.90;;;;;;5186305;28;20442;-50
2023/09/26 10:34:38;;;;;;;6.67;6.00;;;21.00;99.90;;;;;;5187886;28;20506;-50
2023/09/26 10:37:15;;;;;;;6.70;6.00;;;21.10;99.90;;;;;;5205572;28;20455;-51
2023/09/26 10:39:46;;;;;;;6.67;6.00;;;21.20;99.90;;;;;;5189402;28;20438;-50
2023/09/26 10:42:24;;;;;;;6.87;6.20;;;21.20;99.90;;;;;;5190080;28;20443;-50
2023/09/26 10:44:55;;;;;;;11.03;6.50;;;21.20;99.90;;;;;;5186304;28;20184;-51
2023/09/26 10:47:26;;;;;;;7.73;6.47;;;21.30;99.90;;;;;;5191402;28;20478;-50
2023/09/26 10:49:59;;;;;;;9.17;6.00;;;21.30;99.90;;;;;;5187927;28;20435;-50
2023/09/26 10:52:30;;;;;;;7.70;5.70;;;21.30;99.90;;;;;;5188558;28;20223;-50
2023/09/26 10:55:03;;;;;;;6.57;5.97;;;21.40;99.90;;;;;;5186832;28;20727;-52
2023/09/26 10:57:38;;;;;;;8.37;5.97;;;21.60;99.90;;;;;;5189056;28;20466;-50
2023/09/26 11:00:11;;;;;;;6.63;5.93;;;21.70;99.90;;;;;;5189869;28;20465;-53
2023/09/26 11:02:42;;;;;;;6.67;5.20;;;21.70;99.90;;;;;;5189133;28;20439;-51
2023/09/26 11:05:15;;;;;;;8.93;6.50;;;21.70;99.90;;;;;;5180029;28;20452;-51
2023/09/26 11:07:46;;;;;;;8.70;6.00;;;21.80;99.90;;;;;;5184159;28;20471;-50
2023/09/26 11:10:17;;;;;;;9.17;6.13;;;21.70;99.90;;;;;;5186448;28;21054;-50
2023/09/26 11:12:48;;;;;;;9.20;5.80;;;21.60;99.90;;;;;;5184160;28;20577;-51
2023/09/26 11:15:19;;;;;;;12.50;7.10;;;21.60;99.90;;;;;;5186943;28;20181;-51
2023/09/26 11:17:50;;;;;;;8.57;6.60;;;21.70;99.90;;;;;;5184951;28;20455;-52
2023/09/26 11:20:21;;;;;;;13.10;7.17;;;21.70;99.90;;;;;;5177064;28;20229;-52
2023/09/26 11:22:52;;;;;;;15.00;6.90;;;21.70;99.90;;;;;;5189747;28;20187;-51
2023/09/26 11:25:22;;;;;;;8.50;6.20;;;21.80;99.90;;;;;;5187169;28;20668;-50
2023/09/26 11:27:53;;;;;;;5.80;5.17;;;21.80;99.90;;;;;;5185192;28;20261;-50
2023/09/26 11:30:24;;;;;;;7.17;6.40;;;21.90;99.90;;;;;;5186384;28;20728;-51
2023/09/26 11:32:55;;;;;;;9.27;6.30;;;21.90;99.90;;;;;;5188641;28;20230;-50
2023/09/26 11:35:26;;;;;;;11.73;6.23;;;22.00;99.90;;;;;;5175725;28;20235;-52
2023/09/26 11:37:57;;;;;;;7.73;5.50;;;22.10;99.90;;;;;;5189922;28;20948;-50
2023/09/26 11:40:28;;;;;;;7.30;6.60;;;22.10;99.90;;;;;;5186699;28;20194;-52
2023/09/26 11:43:03;;;;;;;7.63;6.07;;;22.00;99.90;;;;;;5186980;28;20462;-50
2023/09/26 11:45:34;;;;;;;7.47;4.97;;;22.10;99.90;;;;;;5186553;28;20847;-52
2023/09/26 11:48:07;;;;;;;6.93;4.83;;;22.10;99.90;;;;;;5182637;28;20475;-51
2023/09/26 11:50:40;;;;;;;8.00;5.93;;;22.30;99.90;;;;;;5184932;28;20192;-51
2023/09/26 11:53:13;;;;;;;8.30;6.53;;;22.30;99.90;;;;;;5186903;28;20503;-49
2023/09/26 11:55:50;;;;;;;11.10;5.47;;;22.50;99.90;;;;;;5187615;28;20430;-48
2023/09/26 11:58:21;;;;;;;7.47;5.03;;;22.50;99.90;;;;;;5171960;28;20457;-50
2023/09/26 12:00:52;;;;;;;17.30;5.50;;;22.60;99.90;;;;;;5187496;28;20532;-51
2023/09/26 12:03:23;;;;;;;10.70;5.50;;;22.70;99.90;;;;;;5170441;28;20319;-52
2023/09/26 12:05:54;;;;;;;6.37;4.63;;;22.60;99.90;;;;;;5202919;28;20184;-50
2023/09/26 12:08:26;;;;;;;6.87;5.60;;;22.50;99.90;;;;;;5187829;28;20208;-51
2023/09/26 12:10:57;;;;;;;8.23;5.20;;;22.50;99.90;;;;;;5176803;28;20633;-49
2023/09/26 12:13:28;;;;;;;5.10;4.70;;;22.50;99.90;;;;;;5183145;28;20463;-49
2023/09/26 12:15:59;;;;;;;8.97;5.13;;;22.60;99.90;;;;;;5183632;28;20181;-49
2023/09/26 12:18:31;;;;;;;13.80;5.47;;;22.70;99.90;;;;;;5187485;28;20180;-51
2023/09/26 12:21:01;;;;;;;15.70;5.80;;;22.80;99.90;;;;;;5183236;28;20489;-49
2023/09/26 12:23:32;;;;;;;6.07;4.70;;;22.90;99.90;;;;;;5180881;28;20411;-50
2023/09/26 12:26:03;;;;;;;3.73;3.53;;;23.00;99.90;;;;;;5184016;28;20330;-51
2023/09/26 12:28:35;;;;;;;6.63;4.47;;;23.10;99.90;;;;;;5181455;28;20200;-50
2023/09/26 12:31:06;;;;;;;9.53;5.50;;;23.20;99.90;;;;;;5185011;28;20204;-49
2023/09/26 12:33:37;;;;;;;6.43;5.30;;;23.30;99.90;;;;;;5186849;28;20533;-50
2023/09/26 12:36:07;;;;;;;7.93;5.40;;;23.30;99.90;;;;;;5186641;28;20576;-50
2023/09/26 12:38:40;;;;;;;10.00;5.60;;;23.30;99.90;;;;;;5201068;28;20191;-49
2023/09/26 12:41:11;;;;;;;7.50;5.23;;;23.20;99.90;;;;;;5186482;28;20207;-51
2023/09/26 12:43:42;;;;;;;5.57;5.17;;;23.10;99.90;;;;;;5172606;28;20447;-49
2023/09/26 12:46:13;;;;;;;5.07;4.67;;;23.10;99.90;;;;;;5180397;28;20454;-49
2023/09/26 12:48:44;;;;;;;9.67;5.80;;;23.10;99.90;;;;;;5186698;28;20187;-49
2023/09/26 12:51:15;;;;;;;4.77;4.43;;;23.00;99.90;;;;;;5186927;28;20192;-50
2023/09/26 12:53:47;;;;;;;6.47;5.20;;;23.10;99.90;;;;;;5181847;28;20188;-50